createdAt,value
2023-08-12T00:00:50.508Z,0.00
2023-08-12T00:01:50.524Z,0.00
2023-08-12T00:02:50.730Z,0.00
2023-08-12T00:03:50.685Z,0.00
2023-08-12T00:04:52.556Z,0.00
2023-08-12T00:05:50.743Z,0.00
2023-08-12T00:06:50.773Z,0.00
2023-08-12T00:07:50.823Z,0.00
2023-08-12T00:08:50.937Z,0.00
2023-08-12T00:09:50.936Z,0.00
2023-08-12T00:10:51.063Z,0.00
2023-08-12T00:11:51.031Z,0.00
2023-08-12T00:12:51.081Z,0.00
2023-08-12T00:13:51.132Z,0.00
2023-08-12T00:14:51.193Z,0.00
2023-08-12T00:15:51.377Z,0.00
2023-08-12T00:16:51.320Z,0.00
2023-08-12T00:17:51.367Z,0.00
2023-08-12T00:18:51.381Z,0.00
2023-08-12T00:19:51.439Z,0.00
2023-08-12T00:20:51.484Z,0.00
2023-08-12T00:21:51.573Z,0.00
2023-08-12T00:22:51.603Z,0.00
2023-08-12T00:23:51.636Z,0.00
2023-08-12T00:24:51.724Z,0.00
2023-08-12T00:25:51.738Z,0.00
2023-08-12T00:26:51.827Z,0.00
2023-08-12T00:27:51.836Z,0.00
2023-08-12T00:28:51.933Z,0.00
2023-08-12T00:29:51.937Z,0.00
2023-08-12T00:30:52.112Z,0.00
2023-08-12T00:31:52.037Z,0.00
2023-08-12T00:32:52.155Z,0.00
2023-08-12T00:33:52.138Z,0.00
2023-08-12T00:34:52.262Z,0.00
2023-08-12T00:35:52.257Z,0.00
2023-08-12T00:36:52.367Z,0.00
2023-08-12T00:37:52.367Z,0.00
2023-08-12T00:38:52.480Z,0.00
2023-08-12T00:39:52.439Z,0.00
2023-08-12T00:40:52.508Z,0.00
2023-08-12T00:41:52.541Z,0.00
2023-08-12T00:42:52.606Z,0.00
2023-08-12T00:43:52.668Z,0.00
2023-08-12T00:44:52.749Z,0.00
2023-08-12T00:45:52.745Z,0.00
2023-08-12T00:46:52.846Z,0.00
2023-08-12T00:47:52.914Z,0.00
2023-08-12T00:48:52.922Z,0.00
2023-08-12T00:49:52.973Z,0.00
2023-08-12T00:50:53.037Z,0.00
2023-08-12T00:51:53.071Z,0.00
2023-08-12T00:52:53.098Z,0.00
2023-08-12T00:53:53.219Z,0.00
2023-08-12T00:54:53.235Z,0.00
2023-08-12T00:55:53.258Z,0.00
2023-08-12T00:56:54.274Z,0.00
2023-08-12T00:57:53.355Z,0.00
2023-08-12T00:58:53.446Z,0.00
2023-08-12T00:59:53.468Z,0.00
2023-08-12T01:00:53.512Z,0.00
2023-08-12T01:01:53.625Z,0.00
2023-08-12T01:02:53.736Z,0.00
2023-08-12T01:03:53.703Z,0.00
2023-08-12T01:04:53.716Z,0.00
2023-08-12T01:05:53.769Z,0.00
2023-08-12T01:06:53.843Z,0.00
2023-08-12T01:07:53.918Z,0.00
2023-08-12T01:08:53.912Z,0.00
2023-08-12T01:09:53.981Z,0.00
2023-08-12T01:10:54.013Z,0.00
2023-08-12T01:11:54.143Z,0.00
2023-08-12T01:12:54.165Z,0.00
2023-08-12T01:13:54.185Z,0.00
2023-08-12T01:14:54.210Z,0.00
2023-08-12T01:15:54.291Z,0.00
2023-08-12T01:16:54.328Z,0.00
2023-08-12T01:17:54.482Z,0.00
2023-08-12T01:18:54.522Z,0.00
2023-08-12T01:19:54.478Z,0.00
2023-08-12T01:20:54.522Z,0.00
2023-08-12T01:21:54.576Z,0.00
2023-08-12T01:22:54.635Z,0.00
2023-08-12T01:23:54.698Z,0.00
2023-08-12T01:24:54.732Z,0.00
2023-08-12T01:25:54.771Z,0.00
2023-08-12T01:26:54.825Z,0.00
2023-08-12T01:27:54.901Z,0.00
2023-08-12T01:28:54.960Z,0.00
2023-08-12T01:29:54.971Z,0.00
2023-08-12T01:30:55.053Z,0.00
2023-08-12T01:31:55.070Z,0.00
2023-08-12T01:32:55.205Z,0.00
2023-08-12T01:33:55.198Z,0.00
2023-08-12T01:34:55.231Z,0.00
2023-08-12T01:35:55.304Z,0.00
2023-08-12T01:36:55.329Z,0.00
2023-08-12T01:37:55.374Z,0.00
2023-08-12T01:38:55.439Z,0.00
2023-08-12T01:39:55.483Z,0.00
2023-08-12T01:40:55.569Z,0.00
2023-08-12T01:41:55.611Z,0.00
2023-08-12T01:42:55.633Z,0.00
2023-08-12T01:43:55.677Z,0.00
2023-08-12T01:44:55.748Z,0.00
2023-08-12T01:45:55.836Z,0.00
2023-08-12T01:46:55.855Z,0.00
2023-08-12T01:47:55.961Z,0.00
2023-08-12T01:48:55.965Z,0.00
2023-08-12T01:49:55.977Z,0.00
2023-08-12T01:50:56.044Z,0.00
2023-08-12T01:51:56.082Z,0.00
2023-08-12T01:52:56.129Z,0.00
2023-08-12T01:53:56.218Z,0.00
2023-08-12T01:54:56.242Z,0.00
2023-08-12T01:55:56.355Z,0.00
2023-08-12T01:56:56.376Z,0.00
2023-08-12T01:57:56.450Z,0.00
2023-08-12T01:58:56.459Z,0.00
2023-08-12T01:59:56.523Z,0.00
2023-08-12T02:00:56.535Z,0.00
2023-08-12T02:01:56.629Z,0.00
2023-08-12T02:02:56.775Z,0.00
2023-08-12T02:03:56.786Z,0.00
2023-08-12T02:04:56.775Z,0.00
2023-08-12T02:05:56.803Z,0.00
2023-08-12T02:06:56.836Z,0.00
2023-08-12T02:07:56.917Z,0.00
2023-08-12T02:08:56.937Z,0.00
2023-08-12T02:09:57.031Z,0.00
2023-08-12T02:10:57.041Z,0.00
2023-08-12T02:11:57.095Z,0.00
2023-08-12T02:12:57.166Z,0.00
2023-08-12T02:13:57.194Z,0.00
2023-08-12T02:14:57.243Z,0.00
2023-08-12T02:15:57.385Z,0.00
2023-08-12T02:16:57.339Z,0.00
2023-08-12T02:17:57.449Z,0.00
2023-08-12T02:18:57.437Z,0.00
2023-08-12T02:19:57.499Z,0.00
2023-08-12T02:20:57.540Z,0.00
2023-08-12T02:21:57.599Z,0.00
2023-08-12T02:22:57.688Z,0.00
2023-08-12T02:23:57.702Z,0.00
2023-08-12T02:24:57.756Z,0.00
2023-08-12T02:25:57.821Z,0.00
2023-08-12T02:26:57.846Z,0.00
2023-08-12T02:27:57.892Z,0.00
2023-08-12T02:28:57.950Z,0.00
2023-08-12T02:29:57.992Z,0.00
2023-08-12T02:30:58.084Z,0.00
2023-08-12T02:31:58.156Z,0.00
2023-08-12T02:32:58.179Z,0.00
2023-08-12T02:33:58.196Z,0.00
2023-08-12T02:34:58.292Z,0.00
2023-08-12T02:35:58.293Z,0.00
2023-08-12T02:36:58.348Z,0.00
2023-08-12T02:37:58.393Z,0.00
2023-08-12T02:38:58.453Z,0.00
2023-08-12T02:39:58.528Z,0.00
2023-08-12T02:40:58.567Z,0.00
2023-08-12T02:41:58.659Z,0.00
2023-08-12T02:42:58.679Z,0.00
2023-08-12T02:43:58.726Z,0.00
2023-08-12T02:44:58.753Z,0.00
2023-08-12T02:45:58.838Z,0.00
2023-08-12T02:46:58.879Z,0.00
2023-08-12T02:47:58.967Z,0.00
2023-08-12T02:48:58.959Z,0.00
2023-08-12T02:49:59.016Z,0.00
2023-08-12T02:50:59.062Z,0.00
2023-08-12T02:51:59.096Z,0.00
2023-08-12T02:52:59.172Z,0.00
2023-08-12T02:53:59.213Z,0.00
2023-08-12T02:54:59.247Z,0.00
2023-08-12T02:55:59.309Z,0.00
2023-08-12T02:56:59.348Z,0.00
2023-08-12T02:57:59.465Z,0.00
2023-08-12T02:58:59.481Z,0.00
2023-08-12T02:59:59.504Z,0.00
2023-08-12T03:00:59.561Z,0.00
2023-08-12T03:01:59.638Z,0.00
2023-08-12T03:02:59.767Z,0.00
2023-08-12T03:03:59.711Z,0.00
2023-08-12T03:04:59.756Z,0.00
2023-08-12T03:05:59.806Z,0.00
2023-08-12T03:06:59.844Z,0.00
2023-08-12T03:07:59.928Z,0.00
2023-08-12T03:08:59.951Z,0.00
2023-08-12T03:10:00.046Z,0.00
2023-08-12T03:11:00.045Z,0.00
2023-08-12T03:12:00.163Z,0.00
2023-08-12T03:13:00.181Z,0.00
2023-08-12T03:14:00.211Z,0.00
2023-08-12T03:15:00.253Z,0.00
2023-08-12T03:16:01.098Z,0.00
2023-08-12T03:17:00.349Z,0.00
2023-08-12T03:18:00.438Z,0.00
2023-08-12T03:19:01.269Z,0.00
2023-08-12T03:20:00.592Z,0.00
2023-08-12T03:21:00.559Z,0.00
2023-08-12T03:22:00.609Z,0.00
2023-08-12T03:23:00.700Z,0.00
2023-08-12T03:24:00.700Z,0.00
2023-08-12T03:25:00.780Z,0.00
2023-08-12T03:26:00.803Z,0.00
2023-08-12T03:27:00.878Z,0.00
2023-08-12T03:28:00.897Z,0.00
2023-08-12T03:29:00.960Z,0.00
2023-08-12T03:30:01.026Z,0.00
2023-08-12T03:31:01.078Z,0.00
2023-08-12T03:32:01.138Z,0.00
2023-08-12T03:33:01.208Z,0.00
2023-08-12T03:34:01.203Z,0.00
2023-08-12T03:35:01.280Z,0.00
2023-08-12T03:36:01.301Z,0.00
2023-08-12T03:37:01.408Z,0.00
2023-08-12T03:38:01.418Z,0.00
2023-08-12T03:39:01.463Z,0.00
2023-08-12T03:40:01.508Z,3.00
2023-08-12T03:41:01.564Z,4.00
2023-08-12T03:42:01.648Z,0.00
2023-08-12T03:43:01.666Z,0.00
2023-08-12T03:44:01.737Z,0.00
2023-08-12T03:45:01.772Z,4.00
2023-08-12T03:46:01.813Z,4.00
2023-08-12T03:47:01.869Z,9.00
2023-08-12T03:48:01.934Z,1.00
2023-08-12T03:49:02.031Z,5.00
2023-08-12T03:50:02.008Z,5.00
2023-08-12T03:51:02.068Z,10.00
2023-08-12T03:52:02.111Z,6.00
2023-08-12T03:53:02.169Z,10.00
2023-08-12T03:54:02.249Z,15.00
2023-08-12T03:55:02.257Z,16.00
2023-08-12T03:56:02.326Z,9.00
2023-08-12T03:57:02.360Z,43.00
2023-08-12T03:58:02.447Z,31.00
2023-08-12T03:59:02.498Z,33.00
2023-08-12T04:00:02.514Z,42.00
2023-08-12T04:01:02.638Z,56.00
2023-08-12T04:02:02.625Z,70.00
2023-08-12T04:03:02.786Z,84.00
2023-08-12T04:04:02.715Z,86.00
2023-08-12T04:05:02.773Z,105.00
2023-08-12T04:06:02.854Z,121.00
2023-08-12T04:07:02.905Z,132.00
2023-08-12T04:08:02.924Z,148.00
2023-08-12T04:09:02.990Z,168.00
2023-08-12T04:10:03.023Z,193.00
2023-08-12T04:11:03.061Z,230.00
2023-08-12T04:12:03.122Z,270.00
2023-08-12T04:13:03.217Z,293.00
2023-08-12T04:14:03.228Z,333.00
2023-08-12T04:15:04.095Z,375.00
2023-08-12T04:16:03.324Z,403.00
2023-08-12T04:17:03.543Z,421.00
2023-08-12T04:18:03.551Z,452.00
2023-08-12T04:19:03.487Z,494.00
2023-08-12T04:20:03.570Z,573.00
2023-08-12T04:21:03.637Z,622.00
2023-08-12T04:22:03.625Z,663.00
2023-08-12T04:23:03.677Z,717.00
2023-08-12T04:24:03.706Z,782.00
2023-08-12T04:25:03.799Z,790.00
2023-08-12T04:26:03.819Z,827.00
2023-08-12T04:27:03.891Z,934.00
2023-08-12T04:28:03.916Z,963.00
2023-08-12T04:29:04.010Z,997.00
2023-08-12T04:30:04.027Z,1025.00
2023-08-12T04:31:04.122Z,1056.00
2023-08-12T04:32:04.187Z,1104.00
2023-08-12T04:33:04.210Z,1161.00
2023-08-12T04:34:04.233Z,1186.00
2023-08-12T04:35:04.278Z,1214.00
2023-08-12T04:36:04.355Z,1298.00
2023-08-12T04:37:04.382Z,1375.00
2023-08-12T04:38:04.452Z,1448.00
2023-08-12T04:39:04.512Z,1522.00
2023-08-12T04:40:04.522Z,1642.00
2023-08-12T04:41:04.606Z,1736.00
2023-08-12T04:42:04.625Z,1823.00
2023-08-12T04:43:04.686Z,1915.00
2023-08-12T04:44:04.754Z,1972.00
2023-08-12T04:45:05.636Z,2051.00
2023-08-12T04:46:04.861Z,2051.00
2023-08-12T04:47:04.917Z,2074.00
2023-08-12T04:48:04.956Z,2090.00
2023-08-12T04:49:05.023Z,2053.00
2023-08-12T04:50:05.029Z,2043.00
2023-08-12T04:51:05.082Z,2065.00
2023-08-12T04:52:05.126Z,2124.00
2023-08-12T04:53:05.176Z,2178.00
2023-08-12T04:54:05.270Z,2228.00
2023-08-12T04:55:05.275Z,2289.00
2023-08-12T04:56:05.333Z,2371.00
2023-08-12T04:57:05.385Z,2465.00
2023-08-12T04:58:05.445Z,2584.00
2023-08-12T04:59:05.505Z,2772.00
2023-08-12T05:00:05.538Z,2890.00
2023-08-12T05:01:05.583Z,2965.00
2023-08-12T05:02:05.776Z,3038.00
2023-08-12T05:03:05.736Z,3159.00
2023-08-12T05:04:05.736Z,3367.00
2023-08-12T05:05:05.780Z,3577.00
2023-08-12T05:06:05.864Z,3832.00
2023-08-12T05:07:05.913Z,4048.00
2023-08-12T05:08:05.977Z,4185.00
2023-08-12T05:09:05.988Z,4356.00
2023-08-12T05:10:06.041Z,4648.00
2023-08-12T05:11:06.091Z,4891.00
2023-08-12T05:12:06.142Z,4976.00
2023-08-12T05:13:06.242Z,5066.00
2023-08-12T05:14:06.258Z,5058.00
2023-08-12T05:15:06.282Z,5133.00
2023-08-12T05:16:06.370Z,5201.00
2023-08-12T05:17:06.381Z,5481.00
2023-08-12T05:18:06.512Z,5655.00
2023-08-12T05:19:06.491Z,5671.00
2023-08-12T05:20:06.546Z,5533.00
2023-08-12T05:21:06.599Z,5427.00
2023-08-12T05:22:06.651Z,5342.00
2023-08-12T05:23:06.735Z,5423.00
2023-08-12T05:24:06.739Z,5565.00
2023-08-12T05:25:06.800Z,5711.00
2023-08-12T05:26:06.835Z,5915.00
2023-08-12T05:27:06.898Z,6228.00
2023-08-12T05:28:06.974Z,6387.00
2023-08-12T05:29:08.811Z,6532.00
2023-08-12T05:30:07.186Z,6766.00
2023-08-12T05:31:07.102Z,7080.00
2023-08-12T05:32:07.189Z,7411.00
2023-08-12T05:33:07.298Z,7624.00
2023-08-12T05:34:07.244Z,7706.00
2023-08-12T05:35:07.312Z,7632.00
2023-08-12T05:36:07.353Z,7408.00
2023-08-12T05:37:07.443Z,7190.00
2023-08-12T05:38:07.489Z,6963.00
2023-08-12T05:39:07.510Z,6713.00
2023-08-12T05:40:07.552Z,6403.00
2023-08-12T05:41:07.634Z,6110.00
2023-08-12T05:42:08.628Z,6030.00
2023-08-12T05:43:07.709Z,6172.00
2023-08-12T05:44:07.782Z,6243.00
2023-08-12T05:45:08.716Z,6317.00
2023-08-12T05:46:07.943Z,6229.00
2023-08-12T05:47:07.911Z,6056.00
2023-08-12T05:48:08.022Z,5960.00
2023-08-12T05:49:08.015Z,5858.00
2023-08-12T05:50:08.103Z,5988.00
2023-08-12T05:51:08.154Z,6098.00
2023-08-12T05:52:08.285Z,6114.00
2023-08-12T05:53:08.259Z,6228.00
2023-08-12T05:54:08.278Z,6300.00
2023-08-12T05:55:08.336Z,6584.00
2023-08-12T05:56:08.374Z,7245.00
2023-08-12T05:57:08.414Z,7966.00
2023-08-12T05:58:08.538Z,8688.00
2023-08-12T05:59:08.516Z,8965.00
2023-08-12T06:00:09.161Z,9075.00
2023-08-12T06:01:08.662Z,9378.00
2023-08-12T06:02:08.693Z,10054.00
2023-08-12T06:03:08.862Z,10769.00
2023-08-12T06:04:08.844Z,11761.00
2023-08-12T06:05:08.821Z,12357.00
2023-08-12T06:06:08.884Z,12872.00
2023-08-12T06:07:08.969Z,13192.00
2023-08-12T06:08:09.049Z,13022.00
2023-08-12T06:09:09.132Z,12674.00
2023-08-12T06:10:09.130Z,12801.00
2023-08-12T06:11:09.134Z,12700.00
2023-08-12T06:12:09.390Z,12823.00
2023-08-12T06:13:09.254Z,13340.00
2023-08-12T06:14:09.330Z,14080.00
2023-08-12T06:15:09.344Z,14193.00
2023-08-12T06:16:09.430Z,14303.00
2023-08-12T06:17:09.442Z,14078.00
2023-08-12T06:18:09.507Z,13487.00
2023-08-12T06:19:09.578Z,13295.00
2023-08-12T06:20:09.621Z,12943.00
2023-08-12T06:21:09.668Z,12369.00
2023-08-12T06:22:09.897Z,12077.00
2023-08-12T06:23:09.773Z,11958.00
2023-08-12T06:24:09.827Z,11828.00
2023-08-12T06:25:09.876Z,11507.00
2023-08-12T06:26:09.912Z,11153.00
2023-08-12T06:27:10.035Z,11126.00
2023-08-12T06:28:10.006Z,11275.00
2023-08-12T06:29:10.070Z,11623.00
2023-08-12T06:30:10.651Z,12012.00
2023-08-12T06:31:10.285Z,12783.00
2023-08-12T06:32:10.572Z,13731.00
2023-08-12T06:33:10.283Z,14402.00
2023-08-12T06:34:10.346Z,14898.00
2023-08-12T06:35:10.383Z,15224.00
2023-08-12T06:36:10.457Z,15946.00
2023-08-12T06:37:10.499Z,16633.00
2023-08-12T06:38:10.534Z,16728.00
2023-08-12T06:39:10.585Z,17858.00
2023-08-12T06:40:10.663Z,17159.00
2023-08-12T06:41:10.727Z,16124.00
2023-08-12T06:42:11.153Z,14467.00
2023-08-12T06:43:10.795Z,17964.00
2023-08-12T06:44:10.844Z,18218.00
2023-08-12T06:45:10.947Z,14572.00
2023-08-12T06:46:10.993Z,23383.00
2023-08-12T06:47:11.025Z,16423.00
2023-08-12T06:48:11.110Z,16205.00
2023-08-12T06:49:11.114Z,15172.00
2023-08-12T06:50:11.179Z,7664.00
2023-08-12T06:51:11.245Z,48228.00
2023-08-12T06:52:11.636Z,20984.00
2023-08-12T06:53:11.319Z,18621.00
2023-08-12T06:54:11.400Z,12505.00
2023-08-12T06:55:11.416Z,12072.00
2023-08-12T06:56:11.510Z,27618.00
2023-08-12T06:57:11.524Z,24482.00
2023-08-12T06:58:11.615Z,22411.00
2023-08-12T06:59:11.624Z,15391.00
2023-08-12T07:00:11.688Z,46806.00
2023-08-12T07:01:14.429Z,55675.00
2023-08-12T07:02:11.969Z,11381.00
2023-08-12T07:03:11.921Z,30948.00
2023-08-12T07:04:11.900Z,9253.00
2023-08-12T07:05:12.669Z,56816.00
2023-08-12T07:06:12.007Z,21271.00
2023-08-12T07:07:12.052Z,19241.00
2023-08-12T07:08:12.156Z,21063.00
2023-08-12T07:09:12.193Z,15906.00
2023-08-12T07:10:12.246Z,22385.00
2023-08-12T07:11:12.275Z,12968.00
2023-08-12T07:12:12.531Z,27593.00
2023-08-12T07:13:12.383Z,9602.00
2023-08-12T07:14:12.441Z,38002.00
2023-08-12T07:15:12.507Z,26348.00
2023-08-12T07:16:12.654Z,21539.00
2023-08-12T07:17:12.616Z,27125.00
2023-08-12T07:18:12.651Z,1016.00
2023-08-12T07:19:14.402Z,46024.00
2023-08-12T07:20:12.757Z,30944.00
2023-08-12T07:21:12.880Z,23513.00
2023-08-12T07:22:13.233Z,21475.00
2023-08-12T07:23:12.922Z,18786.00
2023-08-12T07:24:13.054Z,11148.00
2023-08-12T07:25:13.084Z,41677.00
2023-08-12T07:26:13.104Z,21912.00
2023-08-12T07:27:13.173Z,22213.00
2023-08-12T07:28:14.185Z,22619.00
2023-08-12T07:29:13.257Z,22669.00
2023-08-12T07:30:13.302Z,19820.00
2023-08-12T07:31:13.386Z,38626.00
2023-08-12T07:32:13.730Z,23965.00
2023-08-12T07:33:13.473Z,22461.00
2023-08-12T07:34:13.539Z,36811.00
2023-08-12T07:35:13.593Z,25192.00
2023-08-12T07:36:13.631Z,23534.00
2023-08-12T07:37:13.723Z,21420.00
2023-08-12T07:38:13.919Z,21234.00
2023-08-12T07:39:13.851Z,21852.00
2023-08-12T07:40:19.232Z,22744.00
2023-08-12T07:41:16.038Z,23721.00
2023-08-12T07:42:15.226Z,24118.00
2023-08-12T07:43:14.021Z,24300.00
2023-08-12T07:44:14.065Z,27303.00
2023-08-12T07:45:14.193Z,10592.00
2023-08-12T07:46:14.171Z,55221.00
2023-08-12T07:47:14.234Z,33434.00
2023-08-12T07:48:14.396Z,36826.00
2023-08-12T07:49:14.343Z,23794.00
2023-08-12T07:50:14.387Z,23827.00
2023-08-12T07:51:14.456Z,23775.00
2023-08-12T07:52:14.715Z,25106.00
2023-08-12T07:53:14.607Z,22672.00
2023-08-12T07:54:14.602Z,27041.00
2023-08-12T07:55:14.674Z,27494.00
2023-08-12T07:56:14.725Z,33373.00
2023-08-12T07:57:15.699Z,24605.00
2023-08-12T07:58:14.845Z,10993.00
2023-08-12T07:59:14.864Z,45790.00
2023-08-12T08:00:14.932Z,15390.00
2023-08-12T08:01:15.004Z,45930.00
2023-08-12T08:02:15.466Z,8891.00
2023-08-12T08:03:15.928Z,45764.00
2023-08-12T08:04:15.177Z,16386.00
2023-08-12T08:05:15.243Z,6431.00
2023-08-12T08:06:15.291Z,17287.00
2023-08-12T08:07:15.292Z,54447.00
2023-08-12T08:08:15.360Z,64886.00
2023-08-12T08:09:15.439Z,43665.00
2023-08-12T08:10:15.481Z,29868.00
2023-08-12T08:11:15.513Z,21214.00
2023-08-12T08:12:15.822Z,25377.00
2023-08-12T08:13:15.623Z,17088.00
2023-08-12T08:14:15.710Z,50591.00
2023-08-12T08:15:15.747Z,16966.00
2023-08-12T08:16:15.873Z,25640.00
2023-08-12T08:17:15.928Z,16298.00
2023-08-12T08:18:15.989Z,3774.00
2023-08-12T08:19:15.996Z,17872.00
2023-08-12T08:20:16.024Z,17918.00
2023-08-12T08:21:16.048Z,64257.00
2023-08-12T08:22:16.111Z,40417.00
2023-08-12T08:23:16.172Z,26217.00
2023-08-12T08:24:16.246Z,29370.00
2023-08-12T08:25:16.302Z,14783.00
2023-08-12T08:26:16.317Z,30515.00
2023-08-12T08:27:16.432Z,42817.00
2023-08-12T08:28:16.424Z,27491.00
2023-08-12T08:29:16.526Z,10328.00
2023-08-12T08:30:16.531Z,39346.00
2023-08-12T08:31:16.688Z,47575.00
2023-08-12T08:32:16.644Z,21934.00
2023-08-12T08:33:16.714Z,5579.00
2023-08-12T08:34:16.775Z,56798.00
2023-08-12T08:35:16.833Z,41314.00
2023-08-12T08:36:16.855Z,36342.00
2023-08-12T08:37:16.948Z,30619.00
2023-08-12T08:38:16.980Z,24892.00
2023-08-12T08:39:17.033Z,22771.00
2023-08-12T08:40:18.763Z,23389.00
2023-08-12T08:41:17.169Z,24086.00
2023-08-12T08:42:17.187Z,23771.00
2023-08-12T08:43:17.268Z,29699.00
2023-08-12T08:44:17.314Z,26276.00
2023-08-12T08:45:17.357Z,12855.00
2023-08-12T08:46:17.527Z,5376.00
2023-08-12T08:47:17.469Z,62109.00
2023-08-12T08:48:17.550Z,38956.00
2023-08-12T08:49:17.618Z,59772.00
2023-08-12T08:50:17.624Z,59562.00
2023-08-12T08:51:17.700Z,39584.00
2023-08-12T08:52:17.724Z,37275.00
2023-08-12T08:53:17.771Z,36507.00
2023-08-12T08:54:17.834Z,33487.00
2023-08-12T08:55:18.373Z,30571.00
2023-08-12T08:56:18.067Z,28574.00
2023-08-12T08:57:19.893Z,25566.00
2023-08-12T08:58:22.301Z,11462.00
2023-08-12T08:59:18.119Z,43591.00
2023-08-12T09:00:18.553Z,16967.00
2023-08-12T09:01:18.224Z,34410.00
2023-08-12T09:02:18.278Z,23155.00
2023-08-12T09:03:18.343Z,33853.00
2023-08-12T09:04:18.376Z,25602.00
2023-08-12T09:05:19.256Z,7342.00
2023-08-12T09:06:18.508Z,45984.00
2023-08-12T09:07:18.526Z,23914.00
2023-08-12T09:08:18.600Z,23737.00
2023-08-12T09:09:18.662Z,17781.00
2023-08-12T09:10:18.699Z,6472.00
2023-08-12T09:11:18.744Z,54396.00
2023-08-12T09:12:18.837Z,47505.00
2023-08-12T09:13:18.899Z,48970.00
2023-08-12T09:14:18.944Z,44032.00
2023-08-12T09:15:18.971Z,44988.00
2023-08-12T09:16:19.062Z,56065.00
2023-08-12T09:17:19.076Z,7591.00
2023-08-12T09:18:19.142Z,58170.00
2023-08-12T09:19:19.223Z,43054.00
2023-08-12T09:20:19.257Z,44085.00
2023-08-12T09:21:19.294Z,29493.00
2023-08-12T09:22:19.362Z,6349.00
2023-08-12T09:23:19.451Z,42707.00
2023-08-12T09:24:19.462Z,3547.00
2023-08-12T09:25:19.528Z,53811.00
2023-08-12T09:26:19.578Z,50463.00
2023-08-12T09:27:19.642Z,38780.00
2023-08-12T09:28:19.710Z,35105.00
2023-08-12T09:29:19.748Z,32779.00
2023-08-12T09:30:19.813Z,31617.00
2023-08-12T09:31:19.868Z,30739.00
2023-08-12T09:32:19.943Z,29703.00
2023-08-12T09:33:19.998Z,30353.00
2023-08-12T09:34:20.768Z,30598.00
2023-08-12T09:35:20.075Z,31116.00
2023-08-12T09:36:20.133Z,32658.00
2023-08-12T09:37:20.189Z,25876.00
2023-08-12T09:38:20.260Z,31282.00
2023-08-12T09:39:20.326Z,1456.00
2023-08-12T09:40:20.349Z,46809.00
2023-08-12T09:41:20.415Z,37468.00
2023-08-12T09:42:20.473Z,63515.00
2023-08-12T09:43:20.530Z,47752.00
2023-08-12T09:44:20.888Z,37026.00
2023-08-12T09:45:20.629Z,32663.00
2023-08-12T09:46:20.752Z,15113.00
2023-08-12T09:47:20.798Z,27159.00
2023-08-12T09:48:20.791Z,1491.00
2023-08-12T09:49:20.871Z,21271.00
2023-08-12T09:50:20.931Z,18542.00
2023-08-12T09:51:20.961Z,1927.00
2023-08-12T09:52:21.046Z,51408.00
2023-08-12T09:53:21.061Z,44533.00
2023-08-12T09:54:21.123Z,40870.00
2023-08-12T09:55:21.179Z,25274.00
2023-08-12T09:56:21.238Z,44763.00
2023-08-12T09:57:21.323Z,43190.00
2023-08-12T09:58:21.350Z,14308.00
2023-08-12T09:59:21.394Z,9151.00
2023-08-12T10:00:21.456Z,61285.00
2023-08-12T10:01:21.649Z,41605.00
2023-08-12T10:02:21.601Z,11496.00
2023-08-12T10:03:21.647Z,38991.00
2023-08-12T10:04:21.691Z,23876.00
2023-08-12T10:05:21.739Z,2279.00
2023-08-12T10:06:21.798Z,52565.00
2023-08-12T10:07:21.870Z,34991.00
2023-08-12T10:08:21.934Z,29439.00
2023-08-12T10:09:21.989Z,34155.00
2023-08-12T10:10:22.034Z,33897.00
2023-08-12T10:11:22.066Z,30831.00
2023-08-12T10:12:22.425Z,31192.00
2023-08-12T10:13:22.174Z,41552.00
2023-08-12T10:14:22.275Z,57509.00
2023-08-12T10:15:23.374Z,55585.00
2023-08-12T10:16:22.373Z,45295.00
2023-08-12T10:17:37.301Z,41278.00
2023-08-12T10:18:22.494Z,39798.00
2023-08-12T10:19:22.563Z,47270.00
2023-08-12T10:20:22.568Z,44460.00
2023-08-12T10:21:22.618Z,33097.00
2023-08-12T10:22:22.702Z,47647.00
2023-08-12T10:23:22.754Z,43921.00
2023-08-12T10:24:22.780Z,42702.00
2023-08-12T10:25:22.880Z,30063.00
2023-08-12T10:26:22.936Z,28961.00
2023-08-12T10:27:23.773Z,26024.00
2023-08-12T10:28:23.012Z,19337.00
2023-08-12T10:29:23.078Z,29006.00
2023-08-12T10:30:23.113Z,29998.00
2023-08-12T10:31:23.277Z,27165.00
2023-08-12T10:32:23.243Z,23910.00
2023-08-12T10:33:23.285Z,23020.00
2023-08-12T10:34:23.336Z,24366.00
2023-08-12T10:35:23.404Z,36371.00
2023-08-12T10:36:23.467Z,21796.00
2023-08-12T10:37:23.504Z,20748.00
2023-08-12T10:38:23.553Z,26556.00
2023-08-12T10:39:23.618Z,26864.00
2023-08-12T10:40:23.725Z,34526.00
2023-08-12T10:41:23.769Z,31096.00
2023-08-12T10:42:23.775Z,22363.00
2023-08-12T10:43:23.841Z,19085.00
2023-08-12T10:44:23.926Z,22389.00
2023-08-12T10:45:24.792Z,19489.00
2023-08-12T10:46:24.007Z,20484.00
2023-08-12T10:47:24.146Z,26556.00
2023-08-12T10:48:24.200Z,27044.00
2023-08-12T10:49:24.211Z,25699.00
2023-08-12T10:50:24.242Z,21371.00
2023-08-12T10:51:24.295Z,22582.00
2023-08-12T10:52:24.339Z,30365.00
2023-08-12T10:53:24.431Z,3724.00
2023-08-12T10:54:24.464Z,60690.00
2023-08-12T10:55:24.510Z,40494.00
2023-08-12T10:56:24.575Z,46684.00
2023-08-12T10:57:24.629Z,39774.00
2023-08-12T10:58:24.720Z,35801.00
2023-08-12T10:59:24.735Z,53796.00
2023-08-12T11:00:24.807Z,56122.00
2023-08-12T11:01:24.927Z,48985.00
2023-08-12T11:02:24.924Z,41705.00
2023-08-12T11:03:25.018Z,35629.00
2023-08-12T11:04:25.035Z,31859.00
2023-08-12T11:05:25.131Z,2113.00
2023-08-12T11:06:25.151Z,54101.00
2023-08-12T11:07:25.214Z,38859.00
2023-08-12T11:08:25.274Z,46508.00
2023-08-12T11:09:25.312Z,33529.00
2023-08-12T11:10:25.420Z,30449.00
2023-08-12T11:11:25.469Z,28173.00
2023-08-12T11:12:25.501Z,26501.00
2023-08-12T11:13:25.562Z,24696.00
2023-08-12T11:14:25.613Z,23352.00
2023-08-12T11:15:25.701Z,22708.00
2023-08-12T11:16:25.762Z,22079.00
2023-08-12T11:17:25.793Z,21303.00
2023-08-12T11:18:25.866Z,20250.00
2023-08-12T11:19:25.886Z,19938.00
2023-08-12T11:20:25.988Z,19730.00
2023-08-12T11:21:26.017Z,19397.00
2023-08-12T11:22:26.071Z,19087.00
2023-08-12T11:23:26.142Z,19158.00
2023-08-12T11:24:26.179Z,19250.00
2023-08-12T11:25:26.286Z,19202.00
2023-08-12T11:26:26.299Z,18506.00
2023-08-12T11:27:26.362Z,17498.00
2023-08-12T11:28:26.467Z,16342.00
2023-08-12T11:29:26.486Z,15308.00
2023-08-12T11:30:26.770Z,14481.00
2023-08-12T11:31:26.624Z,13936.00
2023-08-12T11:32:26.659Z,13402.00
2023-08-12T11:33:26.729Z,12859.00
2023-08-12T11:34:26.880Z,12360.00
2023-08-12T11:35:26.871Z,12145.00
2023-08-12T11:36:26.859Z,12365.00
2023-08-12T11:37:26.922Z,13373.00
2023-08-12T11:38:27.008Z,14380.00
2023-08-12T11:39:27.109Z,15657.00
2023-08-12T11:40:27.129Z,21189.00
2023-08-12T11:41:27.214Z,23611.00
2023-08-12T11:42:27.189Z,25844.00
2023-08-12T11:43:27.248Z,26651.00
2023-08-12T11:44:27.305Z,26980.00
2023-08-12T11:45:27.423Z,27015.00
2023-08-12T11:46:28.354Z,26386.00
2023-08-12T11:47:27.471Z,26130.00
2023-08-12T11:48:27.542Z,25473.00
2023-08-12T11:49:27.598Z,25041.00
2023-08-12T11:50:27.725Z,25162.00
2023-08-12T11:51:27.723Z,26092.00
2023-08-12T11:52:27.755Z,26283.00
2023-08-12T11:53:27.884Z,26631.00
2023-08-12T11:54:29.932Z,26044.00
2023-08-12T11:55:27.934Z,24392.00
2023-08-12T11:56:28.012Z,22647.00
2023-08-12T11:57:28.037Z,21607.00
2023-08-12T11:58:52.924Z,21005.00
2023-08-12T11:59:28.146Z,21183.00
2023-08-12T12:00:28.275Z,21217.00
2023-08-12T12:01:28.310Z,21987.00
2023-08-12T12:02:28.344Z,23158.00
2023-08-12T12:03:28.356Z,24359.00
2023-08-12T12:04:28.471Z,25413.00
2023-08-12T12:05:29.352Z,25248.00
2023-08-12T12:06:28.604Z,25835.00
2023-08-12T12:07:28.566Z,25645.00
2023-08-12T12:08:28.613Z,26054.00
2023-08-12T12:09:28.669Z,26742.00
2023-08-12T12:10:30.065Z,27340.00
2023-08-12T12:11:28.798Z,28734.00
2023-08-12T12:12:28.837Z,28533.00
2023-08-12T12:13:28.880Z,27937.00
2023-08-12T12:14:28.946Z,27340.00
2023-08-12T12:15:29.058Z,26529.00
2023-08-12T12:16:29.114Z,15697.00
2023-08-12T12:17:29.115Z,4118.00
2023-08-12T12:18:29.164Z,60117.00